首页
METAR-TAF:

METAR-TAF

机场 :

阿姆斯特丹史基浦機場

阿姆斯特丹, 荷兰

纬度: 52-18N, 经度: 004-46E, 海拔: -4米

当前天气观测

该预报发布于17分钟前的17:25 UTC
风速10节,风向西北,在西之间变化
温度 15°C
湿度 67%
气压 1015 hPa
能见度10公里或以上
1500米以下无云,无积雨云

METAR: EHAM 241725Z 32010KT 260V360 CAVOK 15/09 Q1015 NOSIG

时间: 19:42 (17:42 UTC)

预报

该预报发布于53分钟前的16:49 UTC
预报有效从24日的 18点(UTC)到 25日的 24点(UTC)
风速10节,风向北转西北
能见度10公里或以上
1500米以下无云,无积雨云
成为
从 24日的 19点(UTC)到 24日的 22点(UTC)
风速3节,风向多变
几率 30% :
短暂存在
从 25日的 04点(UTC)到 25日的 08点(UTC)
能見度: 7000
多云层高于1400英尺
小雨
成为
从 25日的 12点(UTC)到 25日的 15点(UTC)
风速7节,风向西转西北
散云层高于3000英尺

TAF: EHAM 241649Z 2418/2524 33010KT CAVOK BECMG 2419/2422 VRB03KT PROB30 TEMPO 2504/2508 7000 -RA BKN014 BECMG 2512/2515 29007KT SCT030

超过4000个机场的气象观测和天气预报(METAR&TAF报告)。

可查询的气象台以黄色和红色小点在地图上表示。

将鼠标移到小点上方,可查看气象台名称。

然后点击查看天气观测和预报。

如需切换地图:点击带黑十字的绿色按钮放大地图;点击带横线的绿色按钮缩小地图;或者点击绿色箭头查看邻近地区的地图。


METAR-TAF: